createdAt,value
2018-05-31T00:00:41.032Z,68.98
2018-05-31T00:03:08.488Z,69.21
2018-05-31T00:05:35.917Z,69.19
2018-05-31T00:08:02.603Z,68.82
2018-05-31T00:10:29.296Z,69.12
2018-05-31T00:12:56.000Z,69.39
2018-05-31T00:15:22.740Z,69.46
2018-05-31T00:17:49.457Z,69.33
2018-05-31T00:20:16.109Z,69.36
2018-05-31T00:22:42.798Z,69.49
2018-05-31T00:25:10.220Z,69.63
2018-05-31T00:27:36.952Z,69.73
2018-05-31T00:30:03.628Z,69.94
2018-05-31T00:32:31.152Z,70.06
2018-05-31T00:34:58.101Z,69.50
2018-05-31T00:37:25.560Z,68.58
2018-05-31T00:39:52.349Z,69.18
2018-05-31T00:42:18.996Z,69.30
2018-05-31T00:44:46.517Z,67.75
2018-05-31T00:47:13.246Z,67.61
2018-05-31T00:49:39.948Z,67.21
2018-05-31T00:52:06.615Z,67.30
2018-05-31T00:54:33.306Z,67.60
2018-05-31T00:57:00.706Z,68.04
2018-05-31T00:59:27.514Z,68.83
2018-05-31T01:01:54.895Z,69.74
2018-05-31T01:04:21.550Z,69.93
2018-05-31T01:06:48.236Z,69.90
2018-05-31T01:09:14.900Z,70.10
2018-05-31T01:11:41.524Z,70.06
2018-05-31T01:14:08.934Z,70.11
2018-05-31T01:16:35.681Z,70.23
2018-05-31T01:19:02.337Z,70.20
2018-05-31T01:21:29.157Z,70.15
2018-05-31T01:23:55.826Z,70.24
2018-05-31T01:26:24.136Z,70.34
2018-05-31T01:28:51.695Z,70.43
2018-05-31T01:31:18.372Z,70.44
2018-05-31T01:33:45.037Z,70.43
2018-05-31T01:36:11.759Z,70.57
2018-05-31T01:38:38.433Z,70.82
2018-05-31T01:41:05.858Z,70.42
2018-05-31T01:43:32.561Z,70.80
2018-05-31T01:45:59.480Z,70.74
2018-05-31T01:48:26.929Z,71.30
2018-05-31T01:50:54.415Z,71.31
2018-05-31T01:53:21.092Z,71.18
2018-05-31T01:55:47.796Z,71.60
2018-05-31T01:58:14.509Z,72.30
2018-05-31T02:00:41.916Z,72.82
2018-05-31T02:03:08.575Z,73.34
2018-05-31T02:05:35.214Z,73.55
2018-05-31T02:08:01.888Z,73.26
2018-05-31T02:10:29.324Z,73.49
2018-05-31T02:12:56.050Z,73.31
2018-05-31T02:15:22.752Z,73.80
2018-05-31T02:17:49.413Z,74.14
2018-05-31T02:20:16.130Z,74.72
2018-05-31T02:22:42.778Z,75.19
2018-05-31T02:25:09.479Z,75.13
2018-05-31T02:27:36.881Z,75.34
2018-05-31T02:30:03.557Z,75.76
2018-05-31T02:32:30.233Z,75.72
2018-05-31T02:34:57.040Z,76.00
2018-05-31T02:37:23.735Z,75.83
2018-05-31T02:39:50.383Z,75.64
2018-05-31T02:42:17.143Z,75.28
2018-05-31T02:44:43.797Z,75.10
2018-05-31T02:47:10.632Z,75.05
2018-05-31T02:49:37.297Z,74.68
2018-05-31T02:52:04.777Z,74.60
2018-05-31T02:54:31.401Z,75.11
2018-05-31T02:56:58.212Z,75.31
2018-05-31T02:59:25.845Z,75.69
2018-05-31T03:01:52.502Z,75.99
2018-05-31T03:04:19.149Z,75.73
2018-05-31T03:06:45.823Z,75.35
2018-05-31T03:09:13.242Z,74.93
2018-05-31T03:11:39.967Z,74.51
2018-05-31T03:14:06.634Z,74.19
2018-05-31T03:16:33.256Z,74.19
2018-05-31T03:18:59.936Z,74.02
2018-05-31T03:21:27.319Z,73.93
2018-05-31T03:23:54.017Z,73.55
2018-05-31T03:26:20.835Z,73.87
2018-05-31T03:28:47.479Z,73.99
2018-05-31T03:31:14.176Z,73.49
2018-05-31T03:33:40.819Z,73.56
2018-05-31T03:36:07.469Z,73.78
2018-05-31T03:38:34.156Z,73.79
2018-05-31T03:41:01.584Z,73.48
2018-05-31T03:43:28.276Z,73.22
2018-05-31T03:45:54.953Z,73.20
2018-05-31T03:48:21.622Z,73.11
2018-05-31T03:50:48.336Z,72.48
2018-05-31T03:53:15.088Z,72.85
2018-05-31T03:55:41.729Z,72.66
2018-05-31T03:58:08.384Z,73.12
2018-05-31T04:00:36.041Z,72.91
2018-05-31T04:03:03.507Z,72.88
2018-05-31T04:05:30.314Z,72.85
2018-05-31T04:07:57.014Z,72.40
2018-05-31T04:10:24.404Z,72.55
2018-05-31T04:12:51.089Z,72.91
2018-05-31T04:15:17.788Z,72.66
2018-05-31T04:17:44.475Z,72.24
2018-05-31T04:20:11.928Z,71.79
2018-05-31T04:22:39.371Z,71.41
2018-05-31T04:25:06.029Z,71.32
2018-05-31T04:27:33.547Z,70.91
2018-05-31T04:30:00.213Z,70.74
2018-05-31T04:32:28.351Z,69.92
2018-05-31T04:34:54.976Z,69.97
2018-05-31T04:37:21.811Z,69.58
2018-05-31T04:39:48.452Z,69.35
2018-05-31T04:42:15.120Z,69.09
2018-05-31T04:44:41.887Z,68.57
2018-05-31T04:47:10.045Z,69.22
2018-05-31T04:49:36.833Z,68.38
2018-05-31T04:52:03.464Z,68.77
2018-05-31T04:54:30.247Z,68.40
2018-05-31T04:56:56.879Z,68.26
2018-05-31T04:59:23.540Z,67.00
2018-05-31T05:01:50.235Z,67.07
2018-05-31T05:04:17.018Z,65.66
2018-05-31T05:06:43.704Z,64.76
2018-05-31T05:09:10.496Z,63.97
2018-05-31T05:11:37.130Z,64.14
2018-05-31T05:14:03.770Z,63.96
2018-05-31T05:16:30.486Z,63.62
2018-05-31T05:18:57.120Z,63.10
2018-05-31T05:21:23.784Z,62.90
2018-05-31T05:23:50.437Z,62.41
2018-05-31T05:26:17.171Z,61.64
2018-05-31T05:28:43.915Z,61.57
2018-05-31T05:31:10.609Z,61.10
2018-05-31T05:33:37.259Z,61.16
2018-05-31T05:36:04.036Z,60.72
2018-05-31T05:38:30.708Z,60.86
2018-05-31T05:40:58.084Z,60.57
2018-05-31T05:43:24.768Z,60.58
2018-05-31T05:45:51.426Z,60.16
2018-05-31T05:48:18.069Z,59.49
2018-05-31T05:50:46.207Z,59.47
2018-05-31T05:53:12.923Z,59.03
2018-05-31T05:55:39.556Z,59.25
2018-05-31T05:58:06.222Z,59.20
2018-05-31T06:00:32.936Z,59.22
2018-05-31T06:02:59.684Z,58.95
2018-05-31T06:05:26.455Z,58.70
2018-05-31T06:07:53.316Z,58.60
2018-05-31T06:10:20.295Z,58.45
2018-05-31T06:12:48.424Z,58.06
2018-05-31T06:15:15.072Z,57.53
2018-05-31T06:17:41.869Z,57.00
2018-05-31T06:20:08.632Z,57.11
2018-05-31T06:22:35.428Z,57.10
2018-05-31T06:25:03.092Z,56.77
2018-05-31T06:27:30.647Z,56.64
2018-05-31T06:29:58.053Z,56.09
2018-05-31T06:32:24.941Z,56.42
2018-05-31T06:34:51.652Z,56.85
2018-05-31T06:37:18.515Z,57.29
2018-05-31T06:39:45.174Z,57.61
2018-05-31T06:42:12.030Z,57.89
2018-05-31T06:44:39.483Z,57.99
2018-05-31T06:47:06.920Z,57.54
2018-05-31T06:49:33.829Z,57.26
2018-05-31T06:52:00.484Z,56.80
2018-05-31T06:54:27.118Z,56.55
2018-05-31T06:56:54.247Z,56.04
2018-05-31T06:59:20.912Z,55.21
2018-05-31T07:01:47.585Z,54.48
2018-05-31T07:04:15.282Z,54.51
2018-05-31T07:06:41.969Z,54.35
2018-05-31T07:09:08.664Z,53.91
2018-05-31T07:11:35.365Z,53.78
2018-05-31T07:14:02.984Z,53.34
2018-05-31T07:16:29.781Z,53.13
2018-05-31T07:18:57.350Z,53.74
2018-05-31T07:21:24.539Z,54.13
2018-05-31T07:23:51.336Z,54.70
2018-05-31T07:26:18.740Z,54.23
2018-05-31T07:28:45.432Z,53.86
2018-05-31T07:31:13.052Z,54.25
2018-05-31T07:33:39.833Z,53.61
2018-05-31T07:36:07.250Z,53.63
2018-05-31T07:38:33.936Z,53.28
2018-05-31T07:41:01.359Z,53.75
2018-05-31T07:43:28.105Z,53.52
2018-05-31T07:45:54.869Z,53.50
2018-05-31T07:48:22.259Z,53.51
2018-05-31T07:50:48.985Z,53.11
2018-05-31T07:53:15.730Z,52.78
2018-05-31T07:55:42.331Z,53.33
2018-05-31T07:58:09.027Z,52.96
2018-05-31T08:00:35.722Z,52.99
2018-05-31T08:03:03.175Z,53.02
2018-05-31T08:05:30.712Z,53.37
2018-05-31T08:07:57.340Z,53.43
2018-05-31T08:10:24.030Z,53.48
2018-05-31T08:12:50.692Z,53.22
2018-05-31T08:15:17.341Z,53.30
2018-05-31T08:17:44.041Z,52.91
2018-05-31T08:20:11.569Z,52.65
2018-05-31T08:22:38.234Z,52.57
2018-05-31T08:25:05.640Z,51.45
2018-05-31T08:27:32.313Z,51.18
2018-05-31T08:29:58.978Z,50.97
2018-05-31T08:32:26.371Z,51.05
2018-05-31T08:34:53.054Z,51.37
2018-05-31T08:37:19.849Z,51.09
2018-05-31T08:39:46.518Z,51.83
2018-05-31T08:42:13.282Z,51.89
2018-05-31T08:44:40.665Z,51.66
2018-05-31T08:47:07.334Z,52.60
2018-05-31T08:49:34.018Z,52.47
2018-05-31T08:52:01.428Z,52.72
2018-05-31T08:54:28.151Z,52.94
2018-05-31T08:56:54.812Z,53.70
2018-05-31T08:59:22.238Z,53.06
2018-05-31T09:01:49.293Z,53.05
2018-05-31T09:04:16.006Z,52.84
2018-05-31T09:06:43.421Z,52.22
2018-05-31T09:09:10.173Z,52.26
2018-05-31T09:11:36.846Z,52.37
2018-05-31T09:14:04.305Z,52.75
2018-05-31T09:16:31.704Z,52.47
2018-05-31T09:18:58.359Z,52.23
2018-05-31T09:21:25.043Z,52.18
2018-05-31T09:23:51.733Z,52.09
2018-05-31T09:26:18.354Z,52.28
2018-05-31T09:28:45.046Z,51.75
2018-05-31T09:31:12.449Z,51.44
2018-05-31T09:33:39.085Z,51.62
2018-05-31T09:36:05.746Z,51.19
2018-05-31T09:38:32.509Z,50.86
2018-05-31T09:40:59.370Z,50.78
2018-05-31T09:43:26.829Z,50.22
2018-05-31T09:45:54.243Z,50.06
2018-05-31T09:48:20.897Z,50.29
2018-05-31T09:50:47.591Z,50.04
2018-05-31T09:53:14.272Z,49.35
2018-05-31T09:55:40.968Z,49.95
2018-05-31T09:58:07.657Z,50.87
2018-05-31T10:00:37.197Z,51.72
2018-05-31T10:03:03.918Z,50.99
2018-05-31T10:05:30.634Z,51.07
2018-05-31T10:07:57.292Z,51.11
2018-05-31T10:10:24.672Z,51.03
2018-05-31T10:12:52.068Z,52.75
2018-05-31T10:15:18.742Z,52.07
2018-05-31T10:17:45.595Z,51.71
2018-05-31T10:20:13.085Z,51.77
2018-05-31T10:22:39.732Z,52.59
2018-05-31T10:25:06.454Z,52.58
2018-05-31T10:27:33.915Z,51.43
2018-05-31T10:30:00.726Z,51.78
2018-05-31T10:32:28.100Z,51.31
2018-05-31T10:34:55.494Z,51.48
2018-05-31T10:37:22.141Z,51.23
2018-05-31T10:39:48.789Z,51.87
2018-05-31T10:42:22.462Z,51.34
2018-05-31T10:44:49.078Z,50.99
2018-05-31T10:47:16.486Z,51.10
2018-05-31T10:49:43.119Z,51.01
2018-05-31T10:52:09.837Z,50.85
2018-05-31T10:54:36.486Z,50.12
2018-05-31T10:57:03.239Z,49.85
2018-05-31T10:59:29.889Z,49.90
2018-05-31T11:01:57.358Z,49.07
2018-05-31T11:04:24.849Z,48.32
2018-05-31T11:06:51.745Z,47.74
2018-05-31T11:09:18.552Z,48.80
2018-05-31T11:11:45.997Z,49.14
2018-05-31T11:14:12.857Z,48.37
2018-05-31T11:16:39.675Z,49.39
2018-05-31T11:19:07.088Z,49.09
2018-05-31T11:21:33.767Z,49.91
2018-05-31T11:24:01.432Z,50.56
2018-05-31T11:26:28.812Z,49.86
2018-05-31T11:28:55.485Z,50.33
2018-05-31T11:31:22.163Z,50.54
2018-05-31T11:33:49.600Z,50.99
2018-05-31T11:36:16.280Z,51.00
2018-05-31T11:38:42.946Z,50.88
2018-05-31T11:41:09.601Z,50.83
2018-05-31T11:43:36.251Z,50.26
2018-05-31T11:46:02.928Z,50.23
2018-05-31T11:48:30.304Z,50.28
2018-05-31T11:50:56.988Z,50.35
2018-05-31T11:53:23.655Z,50.57
2018-05-31T11:55:51.243Z,51.09
2018-05-31T11:58:17.912Z,50.84
2018-05-31T12:00:44.620Z,51.17
2018-05-31T12:03:11.293Z,51.99
2018-05-31T12:05:37.987Z,52.56
2018-05-31T12:08:04.714Z,51.92
2018-05-31T12:10:32.102Z,51.78
2018-05-31T12:12:58.814Z,51.59
2018-05-31T12:15:25.561Z,53.22
2018-05-31T12:17:52.228Z,53.26
2018-05-31T12:20:19.808Z,53.46
2018-05-31T12:22:46.555Z,53.91
2018-05-31T12:25:13.189Z,52.39
2018-05-31T12:27:39.858Z,52.89
2018-05-31T12:30:07.266Z,52.88
2018-05-31T12:32:33.895Z,51.66
2018-05-31T12:35:00.577Z,51.15
2018-05-31T12:37:27.247Z,50.46
2018-05-31T12:39:54.684Z,50.69
2018-05-31T12:42:21.325Z,50.75
2018-05-31T12:44:48.772Z,50.62
2018-05-31T12:47:15.413Z,50.39
2018-05-31T12:49:42.156Z,50.68
2018-05-31T12:52:08.823Z,50.76
2018-05-31T12:54:36.207Z,51.44
2018-05-31T12:57:03.816Z,51.01
2018-05-31T12:59:34.850Z,51.12
2018-05-31T13:02:01.519Z,49.89
2018-05-31T13:04:29.032Z,49.61
2018-05-31T13:06:55.842Z,49.39
2018-05-31T13:09:22.502Z,48.55
2018-05-31T13:11:49.996Z,49.10
2018-05-31T13:14:16.858Z,49.93
2018-05-31T13:16:44.283Z,49.42
2018-05-31T13:19:10.936Z,48.80
2018-05-31T13:21:37.581Z,49.17
2018-05-31T13:24:04.952Z,49.76
2018-05-31T13:26:49.896Z,50.56
2018-05-31T13:29:17.793Z,50.11
2018-05-31T13:31:44.524Z,49.27
2018-05-31T13:34:12.110Z,48.37
2018-05-31T13:36:38.777Z,48.00
2018-05-31T13:39:05.517Z,47.37
2018-05-31T13:41:32.160Z,46.58
2018-05-31T13:43:59.388Z,45.62
2018-05-31T13:46:26.048Z,44.38
2018-05-31T13:48:52.741Z,42.91
2018-05-31T13:51:19.364Z,43.63
2018-05-31T13:53:46.793Z,43.61
2018-05-31T13:56:13.463Z,43.98
2018-05-31T13:58:41.081Z,43.20
2018-05-31T14:01:07.818Z,41.53
2018-05-31T14:03:34.482Z,41.16
2018-05-31T14:06:01.182Z,40.40
2018-05-31T14:08:27.825Z,39.72
2018-05-31T14:10:54.537Z,40.69
2018-05-31T14:13:21.201Z,40.13
2018-05-31T14:15:47.885Z,39.71
2018-05-31T14:18:14.664Z,39.06
2018-05-31T14:20:41.916Z,38.70
2018-05-31T14:23:08.789Z,37.68
2018-05-31T14:25:35.483Z,39.13
2018-05-31T14:28:02.989Z,39.42
2018-05-31T14:30:29.645Z,39.05
2018-05-31T14:32:57.113Z,39.54
2018-05-31T14:35:23.777Z,38.81
2018-05-31T14:37:51.218Z,39.36
2018-05-31T14:40:17.908Z,39.61
2018-05-31T14:42:44.579Z,39.54
2018-05-31T14:45:11.249Z,39.64
2018-05-31T14:47:38.800Z,39.67
2018-05-31T14:50:06.222Z,39.49
2018-05-31T14:52:32.866Z,39.82
2018-05-31T14:54:59.533Z,39.75
2018-05-31T14:57:26.197Z,40.53
2018-05-31T14:59:52.861Z,42.01
2018-05-31T15:02:19.518Z,42.51
2018-05-31T15:04:47.136Z,42.03
2018-05-31T15:07:13.825Z,42.79
2018-05-31T15:09:40.630Z,42.26
2018-05-31T15:12:07.328Z,41.97
2018-05-31T15:14:35.487Z,42.43
2018-05-31T15:17:02.157Z,42.68
2018-05-31T15:19:29.557Z,42.76
2018-05-31T15:21:56.256Z,43.40
2018-05-31T15:24:23.689Z,45.01
2018-05-31T15:26:51.145Z,46.25
2018-05-31T15:29:17.865Z,46.93
2018-05-31T15:31:44.720Z,46.62
2018-05-31T15:34:11.370Z,46.46
2018-05-31T15:36:38.799Z,46.55
2018-05-31T15:39:05.933Z,47.31
2018-05-31T15:41:32.596Z,46.87
2018-05-31T15:44:00.386Z,47.60
2018-05-31T15:46:27.325Z,47.44
2018-05-31T15:48:53.995Z,47.09
2018-05-31T15:51:21.498Z,47.14
2018-05-31T15:53:48.215Z,48.74
2018-05-31T15:56:14.913Z,48.90
2018-05-31T15:58:41.782Z,49.15
2018-05-31T16:01:09.428Z,49.30
2018-05-31T16:03:36.071Z,48.63
2018-05-31T16:06:03.463Z,48.16
2018-05-31T16:08:30.303Z,48.48
2018-05-31T16:10:56.994Z,49.19
2018-05-31T16:13:23.665Z,49.27
2018-05-31T16:15:50.404Z,50.47
2018-05-31T16:18:17.930Z,53.29
2018-05-31T16:20:44.660Z,54.13
2018-05-31T16:23:11.429Z,54.10
2018-05-31T16:25:39.108Z,54.46
2018-05-31T16:28:05.869Z,54.46
2018-05-31T16:30:32.635Z,54.34
2018-05-31T16:32:59.312Z,54.32
2018-05-31T16:35:26.801Z,54.95
2018-05-31T16:37:53.495Z,55.14
2018-05-31T16:40:20.150Z,54.90
2018-05-31T16:42:47.550Z,54.99
2018-05-31T16:45:14.220Z,54.97
2018-05-31T16:47:40.893Z,55.47
2018-05-31T16:50:08.338Z,55.33
2018-05-31T16:52:34.992Z,54.78
2018-05-31T16:55:02.404Z,55.01
2018-05-31T16:57:29.116Z,54.19
2018-05-31T16:59:55.874Z,53.86
2018-05-31T17:02:22.548Z,54.40
2018-05-31T17:04:49.955Z,54.42
2018-05-31T17:07:16.696Z,54.71
2018-05-31T17:09:43.360Z,54.67
2018-05-31T17:12:10.053Z,54.19
2018-05-31T17:14:37.582Z,54.33
2018-05-31T17:17:04.377Z,54.73
2018-05-31T17:19:31.039Z,54.78
2018-05-31T17:21:57.751Z,54.29
2018-05-31T17:24:24.515Z,54.31
2018-05-31T17:26:51.265Z,54.75
2018-05-31T17:29:18.085Z,54.79
2018-05-31T17:31:44.733Z,54.55
2018-05-31T17:34:11.490Z,55.39
2018-05-31T17:36:38.136Z,55.94
2018-05-31T17:39:04.759Z,55.99
2018-05-31T17:41:31.430Z,55.52
2018-05-31T17:43:58.079Z,55.20
2018-05-31T17:46:25.538Z,54.64
2018-05-31T17:48:52.964Z,55.23
2018-05-31T17:51:19.669Z,55.16
2018-05-31T17:53:46.309Z,54.49
2018-05-31T17:56:12.989Z,55.26
2018-05-31T17:58:39.688Z,55.56
2018-05-31T18:01:06.375Z,55.85
2018-05-31T18:03:33.057Z,55.50
2018-05-31T18:05:59.733Z,56.30
2018-05-31T18:08:26.702Z,56.07
2018-05-31T18:10:53.333Z,55.39
2018-05-31T18:13:20.072Z,54.94
2018-05-31T18:15:46.757Z,55.29
2018-05-31T18:18:13.477Z,55.83
2018-05-31T18:20:41.129Z,55.46
2018-05-31T18:23:07.757Z,54.96
2018-05-31T18:25:35.274Z,54.20
2018-05-31T18:28:01.939Z,54.39
2018-05-31T18:30:28.652Z,54.20
2018-05-31T18:32:55.310Z,54.46
2018-05-31T18:35:22.048Z,54.56
2018-05-31T18:37:48.822Z,54.81
2018-05-31T18:40:15.488Z,54.44
2018-05-31T18:42:42.968Z,54.71
2018-05-31T18:45:09.604Z,54.66
2018-05-31T18:47:36.279Z,54.66
2018-05-31T18:50:02.918Z,54.96
2018-05-31T18:52:29.648Z,55.15
2018-05-31T18:54:56.448Z,55.19
2018-05-31T18:57:23.161Z,55.14
2018-05-31T18:59:49.837Z,55.39
2018-05-31T19:02:16.525Z,55.76
2018-05-31T19:04:43.407Z,55.67
2018-05-31T19:07:10.922Z,55.96
2018-05-31T19:09:37.553Z,56.52
2018-05-31T19:12:04.262Z,56.77
2018-05-31T19:14:31.701Z,57.03
2018-05-31T19:16:59.166Z,57.14
2018-05-31T19:19:31.825Z,58.02
2018-05-31T19:21:59.313Z,59.84
2018-05-31T19:24:32.995Z,60.10
2018-05-31T19:29:30.778Z,60.85
2018-05-31T19:31:58.219Z,60.20
2018-05-31T19:34:24.938Z,60.56
2018-05-31T19:36:57.701Z,60.22
2018-05-31T19:39:24.389Z,60.25
2018-05-31T19:41:53.031Z,59.81
2018-05-31T19:44:25.708Z,59.28
2018-05-31T19:46:52.393Z,58.93
2018-05-31T19:49:19.135Z,58.94
2018-05-31T19:51:51.757Z,58.79
2018-05-31T19:54:18.454Z,59.03
2018-05-31T19:56:45.970Z,59.14
2018-05-31T19:59:18.785Z,59.71
2018-05-31T20:01:51.543Z,60.39
2018-05-31T20:04:18.260Z,60.94
2018-05-31T20:06:44.895Z,61.60
2018-05-31T20:09:11.795Z,62.01
2018-05-31T20:11:38.479Z,62.51
2018-05-31T20:14:05.470Z,62.03
2018-05-31T20:16:32.150Z,62.74
2018-05-31T20:18:58.886Z,62.54
2018-05-31T20:21:25.533Z,62.27
2018-05-31T20:23:52.278Z,62.32
2018-05-31T20:26:18.974Z,62.53
2018-05-31T20:28:45.670Z,63.39
2018-05-31T20:31:12.354Z,63.75
2018-05-31T20:33:39.410Z,63.89
2018-05-31T20:36:06.101Z,63.66
2018-05-31T20:38:32.779Z,63.67
2018-05-31T20:40:59.447Z,63.82
2018-05-31T20:43:26.910Z,63.70
2018-05-31T20:45:54.313Z,64.02
2018-05-31T20:48:21.062Z,64.13
2018-05-31T20:50:47.826Z,63.32
2018-05-31T20:53:14.526Z,63.56
2018-05-31T20:55:41.257Z,64.12
2018-05-31T20:58:07.950Z,64.61
2018-05-31T21:00:35.381Z,65.00
2018-05-31T21:03:02.051Z,64.71
2018-05-31T21:05:29.451Z,63.95
2018-05-31T21:07:56.209Z,63.55
2018-05-31T21:10:22.893Z,63.54
2018-05-31T21:12:50.318Z,63.21
2018-05-31T21:15:16.980Z,63.87
2018-05-31T21:17:44.399Z,63.68
2018-05-31T21:20:11.221Z,64.06
2018-05-31T21:22:37.901Z,64.06
2018-05-31T21:25:04.644Z,64.12
2018-05-31T21:27:32.786Z,64.08
2018-05-31T21:29:59.486Z,64.39
2018-05-31T21:32:26.177Z,63.96
2018-05-31T21:34:52.874Z,64.21
2018-05-31T21:37:19.684Z,64.18
2018-05-31T21:39:46.492Z,64.40
2018-05-31T21:42:13.161Z,64.93
2018-05-31T21:44:39.821Z,64.48
2018-05-31T21:47:07.267Z,64.39
2018-05-31T21:49:33.921Z,64.77
2018-05-31T21:52:01.481Z,65.00
2018-05-31T21:54:28.893Z,65.45
2018-05-31T21:56:55.562Z,65.80
2018-05-31T21:59:22.319Z,64.57
2018-05-31T22:01:49.873Z,64.58
2018-05-31T22:04:17.271Z,64.92
2018-05-31T22:06:43.935Z,65.18
2018-05-31T22:09:10.629Z,65.09
2018-05-31T22:11:37.515Z,65.07
2018-05-31T22:14:04.172Z,64.79
2018-05-31T22:16:30.928Z,64.71
2018-05-31T22:18:57.556Z,65.26
2018-05-31T22:21:24.222Z,65.48
2018-05-31T22:23:51.633Z,65.85
2018-05-31T22:26:19.069Z,66.07
2018-05-31T22:28:45.708Z,66.30
2018-05-31T22:31:12.336Z,65.98
2018-05-31T22:33:38.990Z,66.39
2018-05-31T22:36:05.665Z,67.00
2018-05-31T22:38:32.337Z,67.22
2018-05-31T22:40:59.028Z,67.50
2018-05-31T22:43:25.696Z,67.42
2018-05-31T22:45:53.110Z,67.07
2018-05-31T22:48:19.918Z,67.63
2018-05-31T22:50:46.586Z,67.85
2018-05-31T22:53:13.303Z,67.85
2018-05-31T22:55:39.951Z,67.89
2018-05-31T22:58:06.645Z,68.16
2018-05-31T23:00:33.341Z,68.02
2018-05-31T23:03:00.129Z,68.01
2018-05-31T23:05:26.801Z,68.42
2018-05-31T23:07:53.509Z,67.99
2018-05-31T23:10:20.925Z,67.94
2018-05-31T23:12:47.646Z,67.64
2018-05-31T23:15:14.339Z,68.61
2018-05-31T23:17:42.485Z,68.73
2018-05-31T23:20:09.148Z,68.77
2018-05-31T23:22:35.881Z,68.66
2018-05-31T23:25:03.285Z,68.71
2018-05-31T23:27:29.912Z,68.72
2018-05-31T23:29:57.297Z,68.51
2018-05-31T23:32:24.158Z,68.29
2018-05-31T23:34:50.928Z,68.35
2018-05-31T23:37:17.601Z,68.82
2018-05-31T23:39:44.364Z,69.04
2018-05-31T23:42:10.999Z,68.77
2018-05-31T23:44:37.657Z,68.50
2018-05-31T23:47:04.328Z,68.76
2018-05-31T23:49:31.780Z,69.36
2018-05-31T23:51:58.428Z,69.08
2018-05-31T23:54:25.803Z,68.93
2018-05-31T23:56:52.449Z,69.36
2018-05-31T23:59:19.229Z,69.97
